UMKK 181900Z 05002MPS CAVOK 17/15 Q1014 R06/CLRD95 NOSIG RMK QFE759/1012
QNH:(hPa/inHg/mmHg)1014 / 29.94 / 761
QFE:(hPa/inHg/mmHg)1012 / 29.90 / 759
Temperature17
Dew Point15
Visibility> 10000
WeatherCAVOK
Cloud Cover
Transition Altitude4000 ft.
Transition LevelFL50
SQUAWK